Time;durP1;ratioP1;P1;durP2;ratioP2;P2;SDS_P1;SDS_P2;PMS_P1;PMS_P2;Temp;Humidity;BMP_temperature;BMP_pressure;BME280_temperature;BME280_humidity;BME280_pressure;Samples;Min_cycle;Max_cycle;Signal;HPM_P1;HPM_P2
2021/03/24 00:00:52;;;;;;;13.50;8.25;;;;;;;5.92;70.52;101902.11;1794953;79;21222;-71
2021/03/24 00:03:19;;;;;;;12.10;8.58;;;;;;;5.94;70.51;101912.66;1795107;79;21179;-71
2021/03/24 00:05:49;;;;;;;13.15;7.70;;;;;;;5.93;70.50;101908.22;1795442;79;21965;-72
2021/03/24 00:08:18;;;;;;;11.75;6.72;;;;;;;5.92;70.52;101908.64;1795425;79;21159;-71
2021/03/24 00:10:45;;;;;;;15.63;7.70;;;;;;;5.90;70.52;101908.95;1763959;79;21188;-72
2021/03/24 00:13:13;;;;;;;12.45;7.80;;;;;;;5.92;70.53;101909.05;1763863;80;21508;-72
2021/03/24 00:15:40;;;;;;;15.03;7.80;;;;;;;5.93;70.58;101907.84;1763931;81;21219;-71
2021/03/24 00:18:08;;;;;;;11.38;8.15;;;;;;;5.92;70.53;101915.58;1763798;81;21890;-72
2021/03/24 00:20:37;;;;;;;12.10;7.30;;;;;;;5.90;70.59;101914.59;1777292;79;21594;-73
2021/03/24 00:23:04;;;;;;;12.68;7.67;;;;;;;5.89;70.62;101921.50;1795438;79;21629;-72
2021/03/24 00:25:31;;;;;;;10.08;7.25;;;;;;;5.89;70.66;101921.50;1795365;79;21143;-71
2021/03/24 00:27:59;;;;;;;10.75;7.08;;;;;;;5.89;70.69;101925.83;1795315;79;21199;-72
2021/03/24 00:30:29;;;;;;;10.38;7.15;;;;;;;5.89;70.75;101925.83;1795437;79;21940;-72
2021/03/24 00:32:56;;;;;;;10.50;7.65;;;;;;;5.90;70.77;101929.85;1794496;79;21685;-72
2021/03/24 00:35:23;;;;;;;10.03;7.65;;;;;;;5.90;70.78;101928.55;1763994;81;21119;-72
2021/03/24 00:37:50;;;;;;;11.55;7.80;;;;;;;5.90;70.75;101922.42;1779650;79;21140;-72
2021/03/24 00:40:22;;;;;;;9.45;7.40;;;;;;;5.88;70.75;101921.43;1795603;79;21578;-72
2021/03/24 00:42:49;;;;;;;8.03;6.83;;;;;;;5.88;70.78;101916.20;1790709;79;21961;-72
2021/03/24 00:45:16;;;;;;;11.03;7.78;;;;;;;5.86;70.79;101921.33;1763954;81;21235;-72
2021/03/24 00:47:43;;;;;;;12.58;8.78;;;;;;;5.85;70.78;101927.34;1763801;81;21158;-71
2021/03/24 00:50:15;;;;;;;12.25;8.58;;;;;;;5.81;70.78;101926.66;1763979;80;21221;-72
2021/03/24 00:52:42;;;;;;;11.15;8.30;;;;;;;5.78;70.81;101932.98;1764027;81;21238;-71
2021/03/24 00:55:11;;;;;;;10.08;7.53;;;;;;;5.76;70.91;101928.99;1749410;79;24365;-71
2021/03/24 00:57:40;;;;;;;9.33;7.15;;;;;;;5.75;71.01;101934.12;1795822;79;21214;-71
2021/03/24 01:00:21;;;;;;;10.63;7.80;;;;;;;5.75;71.06;101934.12;1788084;79;21203;-71
2021/03/24 01:02:51;;;;;;;11.38;7.80;;;;;;;5.76;71.15;101932.91;1763429;81;21215;-71
2021/03/24 01:05:19;;;;;;;9.68;7.50;;;;;;;5.78;71.16;101940.82;1764033;81;21172;-71
2021/03/24 01:07:47;;;;;;;11.93;8.58;;;;;;;5.76;71.22;101946.36;1763763;81;21902;-71
2021/03/24 01:10:18;;;;;;;10.85;8.15;;;;;;;5.76;71.31;101938.52;1763973;81;21639;-72
2021/03/24 01:12:45;;;;;;;10.60;7.60;;;;;;;5.76;71.35;101934.59;1763548;80;21214;-72
2021/03/24 01:15:14;;;;;;;13.85;8.08;;;;;;;5.72;71.38;101932.61;1766441;81;21283;-71
2021/03/24 01:17:41;;;;;;;11.40;8.28;;;;;;;5.73;71.49;101933.12;1767542;79;21235;-72
2021/03/24 01:20:10;;;;;;;13.40;8.70;;;;;;;5.74;71.56;101931.88;1767363;80;21902;-71
2021/03/24 01:22:37;;;;;;;11.73;7.87;;;;;;;5.74;71.59;101940.13;1767434;81;21294;-71
2021/03/24 01:25:07;;;;;;;12.98;8.50;;;;;;;5.77;71.67;101937.73;1767386;80;21231;-72
2021/03/24 01:27:34;;;;;;;11.12;8.50;;;;;;;5.76;71.65;101936.84;1767362;81;21200;-71
2021/03/24 01:30:01;;;;;;;13.03;9.03;;;;;;;5.74;71.62;101936.22;1767398;81;21187;-71
2021/03/24 01:32:28;;;;;;;11.65;8.45;;;;;;;5.70;71.66;101939.45;1767515;81;21968;-71
2021/03/24 01:34:55;;;;;;;8.83;7.67;;;;;;;5.68;71.78;101944.56;1776907;79;21183;-72
2021/03/24 01:37:22;;;;;;;11.10;7.72;;;;;;;5.69;71.79;101942.84;1767396;81;21569;-71
2021/03/24 01:39:49;;;;;;;8.85;7.45;;;;;;;5.68;71.77;101945.87;1767317;80;21145;-72
2021/03/24 01:42:16;;;;;;;11.08;7.75;;;;;;;5.68;71.77;101952.81;1767658;81;21197;-71
2021/03/24 01:45:20;;;;;;;12.47;7.70;;;;;;;5.65;71.81;101946.59;1767397;80;21837;-71
2021/03/24 01:47:47;;;;;;;11.75;8.05;;;;;;;5.67;71.86;101943.16;1767295;80;21193;-71
2021/03/24 01:50:21;;;;;;;9.15;7.30;;;;;;;5.65;71.90;101941.37;1767386;80;21663;-72
2021/03/24 01:52:48;;;;;;;10.58;7.50;;;;;;;5.64;71.91;101939.95;1767335;80;21213;-72
2021/03/24 01:55:15;;;;;;;12.68;7.67;;;;;;;5.64;71.95;101941.27;1767496;81;21205;-71
2021/03/24 01:57:45;;;;;;;8.98;7.90;;;;;;;5.64;72.03;101940.85;1767266;81;21947;-71
2021/03/24 02:00:17;;;;;;;10.23;7.40;;;;;;;5.65;72.04;101940.47;1767274;81;21260;-71
2021/03/24 02:02:55;;;;;;;10.35;7.35;;;;;;;5.68;72.05;101928.89;1902954;74;22540;-70
2021/03/24 02:05:22;;;;;;;11.97;7.42;;;;;;;5.63;72.07;101932.53;1888935;76;21151;-70
2021/03/24 02:08:00;;;;;;;9.65;6.97;;;;;;;5.63;72.09;101931.60;1888659;76;21980;-72
2021/03/24 02:10:49;;;;;;;9.50;7.03;;;;;;;5.62;72.06;101929.81;1824402;77;21186;-72
2021/03/24 02:13:35;;;;;;;8.43;6.83;;;;;;;5.61;72.12;101931.53;1820388;77;21170;-73
2021/03/24 02:16:20;;;;;;;11.90;7.50;;;;;;;5.61;72.21;101925.00;1848395;77;21111;-72
2021/03/24 02:18:47;;;;;;;8.65;6.95;;;;;;;5.60;72.25;101921.87;1839193;76;21799;-73
2021/03/24 02:21:19;;;;;;;11.40;7.55;;;;;;;5.62;72.27;101926.80;1848658;76;21870;-72
2021/03/24 02:24:35;;;;;;;12.18;7.00;;;;;;;5.63;72.26;101923.39;1848322;77;21194;-72
2021/03/24 02:27:21;;;;;;;10.53;6.92;;;;;;;5.65;72.29;101927.00;1879197;76;21665;-73
2021/03/24 02:29:53;;;;;;;7.83;6.40;;;;;;;5.64;72.27;101926.48;1866742;76;21211;-72
2021/03/24 02:32:22;;;;;;;8.70;5.85;;;;;;;5.61;72.31;101925.38;1804310;79;21132;-73
2021/03/24 02:34:49;;;;;;;10.78;7.05;;;;;;;5.59;72.33;101924.38;1785295;79;21879;-72
2021/03/24 02:37:16;;;;;;;10.32;6.80;;;;;;;5.59;72.41;101922.70;1783349;79;21709;-72
2021/03/24 02:39:43;;;;;;;7.97;6.20;;;;;;;5.59;72.38;101920.47;1789384;79;21111;-73
2021/03/24 02:42:12;;;;;;;7.60;5.92;;;;;;;5.60;72.40;101924.48;1788681;79;21175;-73
2021/03/24 02:44:39;;;;;;;9.18;6.17;;;;;;;5.60;72.38;101928.81;1814428;79;21140;-72
2021/03/24 02:47:06;;;;;;;10.10;6.87;;;;;;;5.62;72.39;101920.67;1847607;77;21678;-73
2021/03/24 02:49:33;;;;;;;8.30;6.95;;;;;;;5.61;72.35;101922.77;1814304;79;21156;-73
2021/03/24 02:52:00;;;;;;;8.53;6.25;;;;;;;5.62;72.36;101928.09;1814416;79;21203;-73
2021/03/24 02:54:29;;;;;;;11.05;6.58;;;;;;;5.60;72.36;101932.73;1782690;79;21136;-72
2021/03/24 02:56:56;;;;;;;9.80;6.08;;;;;;;5.60;72.37;101928.41;1805601;79;21665;-73
2021/03/24 02:59:24;;;;;;;9.25;6.75;;;;;;;5.63;72.36;101931.60;1806867;79;21875;-72
2021/03/24 03:02:14;;;;;;;10.30;6.85;;;;;;;5.63;72.37;101922.46;1813789;79;21215;-71
2021/03/24 03:04:48;;;;;;;8.93;6.45;;;;;;;5.62;72.38;101920.27;1814433;79;21191;-70
2021/03/24 03:07:22;;;;;;;8.60;6.47;;;;;;;5.63;72.41;101922.08;1814538;79;21187;-70
2021/03/24 03:09:56;;;;;;;9.40;6.65;;;;;;;5.63;72.32;101923.39;1814340;79;21717;-70
2021/03/24 03:12:37;;;;;;;9.38;6.40;;;;;;;5.63;72.32;101920.78;1784809;79;21654;-70
2021/03/24 03:15:17;;;;;;;9.53;6.37;;;;;;;5.60;72.32;101914.04;1813689;77;21637;-70
2021/03/24 03:17:49;;;;;;;9.88;7.42;;;;;;;5.59;72.35;101920.47;1836832;77;21592;-71
2021/03/24 03:20:26;;;;;;;11.45;7.12;;;;;;;5.59;72.41;101914.86;1813078;79;21206;-70
2021/03/24 03:23:15;;;;;;;8.00;5.75;;;;;;;5.61;72.38;101916.23;1812740;79;21144;-70
2021/03/24 03:25:43;;;;;;;10.20;6.28;;;;;;;5.61;72.37;101918.47;1813915;79;21950;-71
2021/03/24 03:28:14;;;;;;;9.10;6.08;;;;;;;5.61;72.31;101915.86;1789195;79;21669;-70
2021/03/24 03:30:42;;;;;;;7.58;6.08;;;;;;;5.62;72.36;101911.53;1813771;79;21175;-71
2021/03/24 03:33:11;;;;;;;10.75;6.42;;;;;;;5.64;72.33;101919.06;1808082;79;21168;-71
2021/03/24 03:35:38;;;;;;;7.58;6.10;;;;;;;5.64;72.29;101925.59;1813898;79;21120;-70
2021/03/24 03:38:10;;;;;;;8.83;6.75;;;;;;;5.62;72.27;101926.80;1813737;79;21875;-71
2021/03/24 03:40:37;;;;;;;10.45;6.47;;;;;;;5.59;72.26;101924.01;1812702;79;21195;-71
2021/03/24 03:43:06;;;;;;;9.83;5.83;;;;;;;5.58;72.24;101921.29;1813656;79;21227;-71
2021/03/24 03:45:33;;;;;;;11.65;7.72;;;;;;;5.55;72.31;101921.08;1813456;79;21206;-70
2021/03/24 03:48:00;;;;;;;47.60;24.45;;;;;;;5.54;72.41;101913.66;1788753;79;21191;-67
2021/03/24 03:50:27;;;;;;;38.90;20.75;;;;;;;5.57;72.42;101911.63;1829693;78;21890;-71
2021/03/24 03:53:34;;;;;;;18.45;11.60;;;;;;;5.57;72.38;101907.30;1813671;79;21136;-71
2021/03/24 03:56:21;;;;;;;17.62;11.22;;;;;;;5.56;72.42;101909.44;1829971;78;21650;-72
2021/03/24 03:59:13;;;;;;;40.08;22.22;;;;;;;5.56;72.42;101908.13;1847097;77;21211;-72
2021/03/24 04:01:44;;;;;;;23.85;14.87;;;;;;;5.57;72.42;101910.33;1813505;79;21171;-73
2021/03/24 04:04:28;;;;;;;70.92;34.55;;;;;;;5.57;72.43;101911.22;1813822;79;21892;-73
2021/03/24 04:07:13;;;;;;;47.73;23.98;;;;;;;5.56;72.43;101911.16;1813612;79;28442;-73
2021/03/24 04:09:40;;;;;;;39.92;19.67;;;;;;;5.57;72.50;101912.52;1813741;79;21116;-72
2021/03/24 04:12:13;;;;;;;32.75;16.77;;;;;;;5.56;72.46;101919.88;1813638;79;21144;-71
2021/03/24 04:14:41;;;;;;;19.95;12.18;;;;;;;5.56;72.42;101909.44;1813789;79;21537;-72
2021/03/24 04:17:15;;;;;;;26.65;13.80;;;;;;;5.55;72.41;101911.94;1813623;79;22102;-71
2021/03/24 04:19:46;;;;;;;38.20;20.68;;;;;;;5.58;72.51;101912.14;1796127;79;21279;-72
2021/03/24 04:22:15;;;;;;;30.35;15.23;;;;;;;5.61;72.48;101917.16;1797184;79;21194;-72
2021/03/24 04:24:48;;;;;;;18.60;12.55;;;;;;;5.63;72.36;101922.08;1813549;77;21198;-72
2021/03/24 04:27:15;;;;;;;23.85;14.05;;;;;;;5.61;72.35;101916.23;1830496;78;21199;-72
2021/03/24 04:29:53;;;;;;;20.97;11.63;;;;;;;5.64;72.36;101922.56;1832286;78;22103;-71
2021/03/24 04:32:20;;;;;;;14.07;10.30;;;;;;;5.63;72.29;101922.46;1804104;78;21215;-71
2021/03/24 04:34:47;;;;;;;12.55;9.30;;;;;;;5.63;72.29;101922.08;1765983;79;21676;-72
2021/03/24 04:37:40;;;;;;;18.25;10.78;;;;;;;5.64;72.29;101919.95;1763342;79;21183;-72
2021/03/24 04:40:30;;;;;;;15.65;8.90;;;;;;;5.67;72.28;101921.87;1789219;80;21206;-72
2021/03/24 04:43:11;;;;;;;18.50;11.43;;;;;;;5.70;72.19;101923.36;1804849;79;22794;-72
2021/03/24 04:45:47;;;;;;;22.48;12.00;;;;;;;5.72;72.23;101924.77;1829920;78;22532;-72
2021/03/24 04:48:20;;;;;;;34.45;16.35;;;;;;;5.75;72.21;101923.67;1813791;79;21199;-69
2021/03/24 04:50:55;;;;;;;66.43;34.03;;;;;;;5.76;72.14;101926.77;1818630;78;21192;-69
2021/03/24 04:53:23;;;;;;;33.08;18.82;;;;;;;5.75;72.13;101927.17;1772037;78;21260;-70
2021/03/24 04:55:50;;;;;;;17.02;10.53;;;;;;;5.75;72.09;101929.78;1781160;80;22232;-70
2021/03/24 04:58:34;;;;;;;22.73;14.05;;;;;;;5.75;72.09;101929.78;1789164;80;21179;-69
2021/03/24 05:01:12;;;;;;;15.35;10.68;;;;;;;5.75;72.05;101924.56;1784469;78;21546;-69
2021/03/24 05:03:41;;;;;;;13.43;10.18;;;;;;;5.75;72.00;101931.50;1786607;79;21237;-70
2021/03/24 05:06:33;;;;;;;13.03;9.50;;;;;;;5.72;71.93;101933.91;1786944;80;21674;-70
2021/03/24 05:09:01;;;;;;;13.98;9.38;;;;;;;5.73;71.93;101930.09;1777493;79;22122;-70
2021/03/24 05:11:45;;;;;;;14.55;9.73;;;;;;;5.76;72.03;101922.84;1781701;79;21286;-68
2021/03/24 05:14:23;;;;;;;;;;;;;;;5.77;71.93;101924.66;1766923;79;21210;-67
2021/03/24 05:17:51;;;;;;;14.58;9.18;;;;;;;5.78;72.00;101927.76;1771416;79;20269;-68
2021/03/24 05:20:13;;;;;;;18.62;10.85;;;;;;;5.81;72.00;101931.47;1742516;81;21199;-67
2021/03/24 05:22:51;;;;;;;34.43;18.12;;;;;;;5.87;72.00;101929.65;1886636;75;22715;-68
2021/03/24 05:25:39;;;;;;;14.70;11.15;;;;;;;5.83;71.96;101930.27;1845815;77;21162;-68
2021/03/24 05:28:12;;;;;;;30.05;16.73;;;;;;;5.84;71.97;101934.29;1856399;76;21918;-69
2021/03/24 05:30:42;;;;;;;29.90;16.55;;;;;;;5.85;71.93;101932.57;1829168;76;21389;-69
2021/03/24 05:33:19;;;;;;;26.15;13.72;;;;;;;5.86;71.92;101933.09;1828021;76;21175;-67
2021/03/24 05:36:16;;;;;;;30.10;16.73;;;;;;;5.86;71.89;101931.78;1856628;77;21229;-68
2021/03/24 05:38:46;;;;;;;19.07;12.58;;;;;;;5.85;71.83;101931.27;1824311;77;21660;-68
2021/03/24 05:41:57;;;;;;;17.60;11.65;;;;;;;5.87;71.86;101935.28;1846029;77;21876;-66
2021/03/24 05:45:02;;;;;;;26.10;13.80;;;;;;;5.85;71.83;101934.77;1799846;77;21183;-67
2021/03/24 05:47:54;;;;;;;23.55;13.78;;;;;;;5.87;71.82;101932.26;1847302;77;21179;-67
2021/03/24 05:50:51;;;;;;;28.98;15.38;;;;;;;5.93;71.81;101933.98;1799022;79;22853;-67
2021/03/24 05:54:16;;;;;;;26.82;17.15;;;;;;;5.90;71.82;101938.11;1758008;81;21164;-67
2021/03/24 05:57:07;;;;;;;28.73;16.70;;;;;;;5.92;71.84;101939.10;1765078;81;22669;-67
2021/03/24 05:59:57;;;;;;;21.35;12.85;;;;;;;5.94;71.81;101942.71;1763423;79;21195;-67
2021/03/24 06:02:32;;;;;;;21.15;12.50;;;;;;;5.94;71.79;101934.87;1726239;81;21135;-67
2021/03/24 06:05:12;;;;;;;19.27;13.03;;;;;;;5.94;71.74;101938.37;1764112;81;22182;-66
2021/03/24 06:07:50;;;;;;;22.73;14.35;;;;;;;5.96;71.79;101944.64;1764569;79;21581;-66
2021/03/24 06:10:31;;;;;;;30.85;16.55;;;;;;;5.99;71.74;101942.64;1763821;81;21955;-67
2021/03/24 06:13:22;;;;;;;25.75;15.48;;;;;;;6.01;71.86;101947.14;1764557;81;21221;-66
2021/03/24 06:16:16;;;;;;;30.57;15.75;;;;;;;6.08;71.88;101940.98;1764856;81;21202;-66
2021/03/24 06:19:15;;;;;;;36.15;21.27;;;;;;;6.12;71.74;101941.28;1765049;79;21150;-67
2021/03/24 06:22:07;;;;;;;40.98;25.55;;;;;;;6.16;71.75;101934.54;1764778;81;21162;-67
2021/03/24 06:24:46;;;;;;;25.00;16.10;;;;;;;6.22;71.70;101934.91;1723997;80;24289;-67
2021/03/24 06:27:43;;;;;;;30.50;19.02;;;;;;;6.27;71.69;101928.64;1733063;81;21241;-67
2021/03/24 06:30:40;;;;;;;31.50;21.40;;;;;;;6.33;71.71;101928.63;1733163;82;21671;-67
2021/03/24 06:33:44;;;;;;;47.73;28.92;;;;;;;6.42;71.58;101932.22;1732843;81;22450;-68
2021/03/24 06:36:22;;;;;;;69.47;46.33;;;;;;;6.48;71.54;101939.53;1771937;79;23437;-67
2021/03/24 06:39:25;;;;;;;85.12;56.83;;;;;;;6.54;71.48;101943.41;1754880;81;21906;-67
2021/03/24 06:42:03;;;;;;;95.28;58.60;;;;;;;6.58;71.39;101942.77;1755702;79;21219;-67
2021/03/24 06:44:44;;;;;;;90.07;59.35;;;;;;;6.59;71.27;101938.05;1756658;81;21169;-67
2021/03/24 06:47:19;;;;;;;31.07;22.25;;;;;;;6.66;71.29;101944.95;1756132;81;21156;-67
2021/03/24 06:50:08;;;;;;;64.67;41.00;;;;;;;6.73;71.27;101939.28;1745634;81;21768;-67
2021/03/24 06:53:01;;;;;;;111.35;60.28;;;;;;;6.78;71.11;101945.28;1760367;80;21383;-67
2021/03/24 06:56:02;;;;;;;139.82;75.03;;;;;;;6.81;71.06;101944.17;1740625;82;21585;-67
2021/03/24 06:58:50;;;;;;;53.95;32.03;;;;;;;6.90;71.05;101941.17;1755439;80;21151;-67
2021/03/24 07:01:28;;;;;;;39.63;25.88;;;;;;;6.98;70.87;101939.92;1700322;83;21228;-67
2021/03/24 07:04:29;;;;;;;24.47;18.27;;;;;;;7.06;70.81;101939.45;1763611;81;21216;-67
2021/03/24 07:07:34;;;;;;;20.82;14.47;;;;;;;7.12;70.75;101939.41;1759363;81;23141;-67
2021/03/24 07:10:52;;;;;;;24.20;13.20;;;;;;;7.20;70.66;101935.50;1753382;80;21168;-67
2021/03/24 07:14:08;;;;;;;20.00;12.35;;;;;;;7.28;70.43;101937.28;1695759;84;21199;-67
2021/03/24 07:16:57;;;;;;;24.12;15.32;;;;;;;7.31;70.29;101941.78;1752274;80;21188;-68
2021/03/24 07:20:00;;;;;;;24.65;15.95;;;;;;;7.33;70.24;101949.32;1745569;81;21215;-67
2021/03/24 07:22:50;;;;;;;30.57;19.82;;;;;;;7.36;70.19;101948.20;1719956;80;21973;-69
2021/03/24 07:25:41;;;;;;;26.77;16.05;;;;;;;7.42;70.11;101955.09;1751662;80;21204;-68
2021/03/24 07:28:41;;;;;;;25.80;14.90;;;;;;;7.42;69.84;101956.39;1746268;80;21783;-67
2021/03/24 07:32:07;;;;;;;22.73;12.88;;;;;;;7.44;70.00;101954.77;1741589;81;21232;-68
2021/03/24 07:35:07;;;;;;;26.30;13.50;;;;;;;7.52;69.93;101957.40;1726136;82;21247;-68
2021/03/24 07:38:06;;;;;;;22.32;15.85;;;;;;;7.62;69.88;101951.38;1687705;85;21898;-69
2021/03/24 07:41:21;;;;;;;21.30;14.63;;;;;;;7.69;69.67;101945.66;1753262;81;21227;-68
2021/03/24 07:44:33;;;;;;;21.12;16.20;;;;;;;7.68;69.42;101955.25;1754825;81;21751;-68
2021/03/24 07:47:31;;;;;;;23.22;16.50;;;;;;;7.70;69.43;101952.72;1720425;83;21206;-68
2021/03/24 07:50:19;;;;;;;22.90;16.65;;;;;;;7.71;69.42;101955.41;1738809;81;21202;-68
2021/03/24 07:52:59;;;;;;;25.32;16.45;;;;;;;7.77;69.42;101954.84;1766317;81;21952;-68
2021/03/24 07:55:38;;;;;;;22.82;14.05;;;;;;;7.86;69.40;101955.77;1702381;82;21267;-68
2021/03/24 07:58:31;;;;;;;18.00;14.07;;;;;;;7.91;69.34;101948.66;1757585;80;21152;-68
2021/03/24 08:01:03;;;;;;;21.37;14.95;;;;;;;7.96;69.20;101951.13;1732810;82;21175;-67
2021/03/24 08:03:47;;;;;;;21.70;15.60;;;;;;;8.01;69.19;101951.78;1747984;81;21563;-66
2021/03/24 08:06:31;;;;;;;22.60;17.65;;;;;;;8.10;69.07;101953.18;1780149;80;21958;-68
2021/03/24 08:09:33;;;;;;;19.12;16.42;;;;;;;8.09;68.85;101950.08;1759866;80;21223;-67
2021/03/24 08:12:29;;;;;;;18.65;14.68;;;;;;;8.09;68.69;101954.02;1759996;81;21518;-69
2021/03/24 08:15:10;;;;;;;18.30;15.00;;;;;;;8.18;68.82;101947.03;1758378;81;21227;-68
2021/03/24 08:18:00;;;;;;;20.20;14.30;;;;;;;8.32;68.78;101950.00;1760013;81;21163;-68
2021/03/24 08:20:51;;;;;;;18.02;13.85;;;;;;;8.46;68.69;101942.88;1765879;81;21900;-68
2021/03/24 08:23:44;;;;;;;19.37;15.75;;;;;;;8.59;68.63;101944.85;1733519;82;21262;-68
2021/03/24 08:26:19;;;;;;;18.87;13.07;;;;;;;8.73;68.39;101947.80;1765942;81;21674;-69
2021/03/24 08:29:00;;;;;;;23.18;18.40;;;;;;;8.83;68.15;101942.59;1733918;82;21220;-69
2021/03/24 08:31:55;;;;;;;17.50;13.78;;;;;;;8.87;67.84;101934.05;1765934;81;21684;-70
2021/03/24 08:34:42;;;;;;;17.52;12.40;;;;;;;8.95;67.79;101936.64;1714675;82;21898;-68
2021/03/24 08:37:34;;;;;;;19.30;13.60;;;;;;;9.08;67.76;101928.97;1781226;80;21669;-68
2021/03/24 08:40:57;;;;;;;16.27;11.53;;;;;;;9.18;67.40;101932.56;1767276;81;21173;-68
2021/03/24 08:43:47;;;;;;;15.53;12.70;;;;;;;9.26;67.20;101923.73;1743132;82;21144;-67
2021/03/24 08:46:37;;;;;;;14.85;11.40;;;;;;;9.36;66.99;101927.71;1716784;82;21204;-68
2021/03/24 08:49:29;;;;;;;15.72;11.40;;;;;;;9.50;66.91;101923.61;1743287;82;22888;-68
2021/03/24 08:52:28;;;;;;;19.00;12.73;;;;;;;9.61;66.84;101925.45;1750873;81;21219;-67
2021/03/24 08:55:26;;;;;;;17.45;14.78;;;;;;;9.75;66.58;101915.58;1706102;84;21191;-69
2021/03/24 08:58:18;;;;;;;15.23;12.18;;;;;;;9.88;66.25;101928.47;1758150;81;21203;-68
2021/03/24 09:00:56;;;;;;;15.72;12.43;;;;;;;10.02;66.15;101915.97;1669639;85;21249;-68
2021/03/24 09:04:05;;;;;;;18.77;13.88;;;;;;;10.14;65.75;101924.83;1669699;85;21975;-68
2021/03/24 09:06:59;;;;;;;18.47;16.43;;;;;;;10.25;65.27;101926.22;1834900;76;28414;-70
2021/03/24 09:09:58;;;;;;;15.58;12.35;;;;;;;10.30;65.44;101926.41;1817743;77;21178;-69
2021/03/24 09:12:45;;;;;;;15.80;12.10;;;;;;;10.41;65.23;101928.25;1809478;79;21880;-69
2021/03/24 09:15:23;;;;;;;15.85;11.78;;;;;;;10.54;64.99;101926.64;1823804;77;21214;-70
2021/03/24 09:18:14;;;;;;;16.45;12.23;;;;;;;10.68;64.69;101924.63;1823935;77;21203;-69
2021/03/24 09:21:17;;;;;;;17.73;12.75;;;;;;;10.78;64.51;101925.49;1855497;77;21593;-70
2021/03/24 09:24:40;;;;;;;14.25;11.75;;;;;;;10.88;64.25;101918.45;1785767;80;21148;-69
2021/03/24 09:27:37;;;;;;;16.62;14.55;;;;;;;11.05;64.06;101915.63;1762683;80;21924;-70
2021/03/24 09:30:33;;;;;;;20.72;14.47;;;;;;;11.15;63.69;101910.32;1748395;82;21139;-69
2021/03/24 09:33:17;;;;;;;21.55;14.20;;;;;;;11.28;63.64;101906.06;1753497;80;21200;-69
2021/03/24 09:36:39;;;;;;;19.23;14.03;;;;;;;11.38;63.10;101920.51;1740907;82;21256;-70
2021/03/24 09:39:26;;;;;;;18.40;13.70;;;;;;;11.34;62.94;101914.64;1740871;82;21218;-70
2021/03/24 09:42:07;;;;;;;17.82;15.10;;;;;;;11.32;62.79;101909.69;1740946;81;21888;-70
2021/03/24 09:44:42;;;;;;;20.12;13.98;;;;;;;11.38;62.89;101906.01;1769103;80;21159;-69
2021/03/24 09:47:39;;;;;;;25.92;19.17;;;;;;;11.46;62.77;101905.45;1778034;80;21145;-69
2021/03/24 09:50:32;;;;;;;24.60;16.67;;;;;;;11.52;62.45;101902.59;1676575;84;21260;-70
2021/03/24 09:53:20;;;;;;;23.62;18.02;;;;;;;11.52;62.14;101903.48;1716250;83;21766;-69
2021/03/24 09:55:58;;;;;;;24.57;18.45;;;;;;;11.45;62.08;101901.47;1716379;83;21227;-69
2021/03/24 09:58:40;;;;;;;28.10;20.55;;;;;;;11.44;61.79;101901.86;1716163;83;21247;-69
2021/03/24 10:02:03;;;;;;;22.25;17.23;;;;;;;11.43;61.60;101897.84;1715931;83;21180;-69
2021/03/24 10:04:52;;;;;;;27.30;18.07;;;;;;;11.48;61.40;101895.86;1888459;76;22224;-70
2021/03/24 10:07:25;;;;;;;26.62;18.25;;;;;;;11.47;61.48;101897.15;1877187;76;21200;-68
2021/03/24 10:10:04;;;;;;;;;;;;;;;11.55;61.31;101893.49;1891140;76;22803;-67
2021/03/24 10:12:55;;;;;;;26.42;20.02;;;;;;;11.53;60.81;101897.81;1846719;77;20513;-69
2021/03/24 10:15:38;;;;;;;37.28;29.63;;;;;;;11.45;60.78;101897.52;1812587;78;21195;-67
2021/03/24 10:18:22;;;;;;;46.10;31.48;;;;;;;11.45;60.79;101896.20;1809760;79;21203;-69
2021/03/24 10:21:21;;;;;;;27.82;20.10;;;;;;;11.42;60.60;101892.99;1805767;79;21593;-69
2021/03/24 10:23:59;;;;;;;28.77;16.67;;;;;;;11.42;60.55;101896.95;1804759;79;21883;-70
2021/03/24 10:27:03;;;;;;;22.95;17.62;;;;;;;11.39;60.40;101902.13;1811960;79;21200;-68
2021/03/24 10:29:40;;;;;;;24.18;18.12;;;;;;;11.33;60.23;101901.85;1796730;78;21188;-69
2021/03/24 10:32:20;;;;;;;29.37;21.05;;;;;;;11.26;60.13;101904.67;1813770;78;21128;-68
2021/03/24 10:34:49;;;;;;;27.37;19.42;;;;;;;11.22;60.21;101892.22;1783323;79;21636;-69
2021/03/24 10:37:56;;;;;;;28.92;20.10;;;;;;;11.23;59.92;101900.58;1778618;79;22876;-69
2021/03/24 10:40:39;;;;;;;29.55;21.80;;;;;;;11.24;59.73;101899.77;1807404;78;21211;-68
2021/03/24 10:43:19;;;;;;;34.95;23.02;;;;;;;11.31;59.33;101903.53;1812575;79;21176;-68
2021/03/24 10:46:10;;;;;;;34.45;23.75;;;;;;;11.32;59.13;101896.12;1813616;79;21211;-69
2021/03/24 10:49:05;;;;;;;28.73;21.60;;;;;;;11.36;58.90;101907.26;1734197;81;21755;-69
2021/03/24 10:51:53;;;;;;;26.65;20.70;;;;;;;11.34;58.50;101902.77;1838870;77;21883;-69
2021/03/24 10:54:26;;;;;;;31.20;22.93;;;;;;;11.28;58.43;101900.79;1813846;79;21199;-69
2021/03/24 10:57:21;;;;;;;35.92;24.43;;;;;;;11.28;58.55;101904.75;1824518;78;21713;-69
2021/03/24 11:00:09;;;;;;;34.48;21.82;;;;;;;11.32;58.56;101896.12;1813904;79;21183;-69
2021/03/24 11:03:03;;;;;;;28.47;21.12;;;;;;;11.34;58.32;101897.08;1824208;78;21124;-70
2021/03/24 11:05:41;;;;;;;32.58;22.20;;;;;;;11.34;58.22;101893.55;1813979;79;22868;-68
2021/03/24 11:08:42;;;;;;;30.70;21.97;;;;;;;11.29;57.99;101892.02;1823605;78;21227;-67
2021/03/24 11:11:23;;;;;;;30.32;22.50;;;;;;;11.28;57.99;101895.52;1760026;81;21158;-67
2021/03/24 11:14:09;;;;;;;40.33;23.12;;;;;;;11.28;58.01;101891.56;1760246;81;21625;-69
2021/03/24 11:16:48;;;;;;;34.05;23.85;;;;;;;11.21;57.60;101892.14;1759501;81;21150;-69
2021/03/24 11:19:33;;;;;;;37.75;24.20;;;;;;;11.09;57.65;101891.20;1758887;80;21895;-69
2021/03/24 11:22:30;;;;;;;30.50;22.42;;;;;;;11.05;57.66;101881.37;1759442;81;21201;-69
2021/03/24 11:25:03;;;;;;;36.15;23.30;;;;;;;10.97;57.71;101885.02;1759476;81;21228;-69
2021/03/24 11:27:40;;;;;;;29.23;20.77;;;;;;;11.01;57.77;101886.05;1772613;78;21268;-69
2021/03/24 11:30:40;;;;;;;31.12;20.65;;;;;;;11.00;57.64;101878.97;1772829;80;21585;-70
2021/03/24 11:33:35;;;;;;;29.82;21.97;;;;;;;11.01;57.60;101888.25;1788313;78;21946;-69
2021/03/24 11:36:12;;;;;;;30.48;21.50;;;;;;;11.04;57.35;101881.80;1790552;80;21248;-70
2021/03/24 11:38:50;;;;;;;27.52;21.48;;;;;;;11.08;57.44;101875.82;1790400;80;21167;-69
2021/03/24 11:41:31;;;;;;;30.80;22.58;;;;;;;11.14;57.41;101874.28;1790679;80;21226;-68
2021/03/24 11:44:20;;;;;;;27.17;20.70;;;;;;;11.16;57.52;101878.77;1768703;78;21135;-69
2021/03/24 11:47:12;;;;;;;;;;;;;;;;;;;;;
2021/03/24 11:50:04;;;;;;;29.12;20.65;;;;;;;11.23;57.04;101869.38;1880490;75;22709;-69
2021/03/24 11:52:56;;;;;;;30.77;21.10;;;;;;;11.14;57.00;101871.64;1845632;77;21198;-68
2021/03/24 11:56:00;;;;;;;27.80;21.85;;;;;;;11.14;57.09;101867.70;1845370;77;21821;-69
2021/03/24 11:58:44;;;;;;;30.92;22.52;;;;;;;11.11;56.91;101872.40;1845809;77;21163;-69
2021/03/24 12:01:45;;;;;;;31.97;20.88;;;;;;;11.05;57.00;101860.30;1844225;76;21376;-68
2021/03/24 12:04:42;;;;;;;30.70;21.48;;;;;;;11.07;57.12;101862.58;1771604;81;21248;-69
2021/03/24 12:07:27;;;;;;;29.50;20.60;;;;;;;11.07;57.01;101869.16;1798401;79;21151;-69
2021/03/24 12:10:26;;;;;;;40.90;25.23;;;;;;;11.04;57.02;101865.11;1801188;79;21893;-69
2021/03/24 12:13:14;;;;;;;30.52;21.05;;;;;;;11.01;57.08;101859.27;1675180;84;21208;-69
2021/03/24 12:16:07;;;;;;;32.65;22.20;;;;;;;11.00;57.06;101858.81;1888225;75;20981;-67
2021/03/24 12:18:53;;;;;;;27.27;21.27;;;;;;;10.95;57.14;101851.13;1851749;76;26740;-69
2021/03/24 12:21:31;;;;;;;43.50;24.52;;;;;;;10.92;57.11;101853.63;1851063;77;21877;-70
2021/03/24 12:24:05;;;;;;;33.33;23.07;;;;;;;10.91;57.21;101858.43;1850951;76;21189;-69
2021/03/24 12:26:35;;;;;;;31.35;22.58;;;;;;;10.90;57.05;101852.66;1851099;77;21646;-70
2021/03/24 12:29:23;;;;;;;29.10;21.60;;;;;;;10.85;56.95;101845.02;1850735;77;21173;-70